createdAt,value
2022-11-20T00:04:12.914Z,2.67
2022-11-20T00:09:15.703Z,2.68
2022-11-20T00:14:18.707Z,2.68
2022-11-20T00:19:28.943Z,2.66
2022-11-20T00:24:31.698Z,2.67
2022-11-20T00:29:35.083Z,2.68
2022-11-20T00:34:43.385Z,2.68
2022-11-20T00:39:46.308Z,2.70
2022-11-20T00:44:49.934Z,2.72
2022-11-20T01:05:52.316Z,2.88
2022-11-20T01:21:40.523Z,2.95
2022-11-20T01:26:45.481Z,2.91
2022-11-20T01:31:49.095Z,2.93
2022-11-20T01:36:57.496Z,2.96
2022-11-20T01:47:25.063Z,3.04
2022-11-20T01:52:32.969Z,2.97
2022-11-20T01:57:38.253Z,2.97
2022-11-20T02:02:53.408Z,2.97
2022-11-20T02:07:59.769Z,2.97
2022-11-20T02:18:26.075Z,2.94
2022-11-20T02:23:36.447Z,2.81
2022-11-20T02:28:45.490Z,2.76
2022-11-20T02:33:48.289Z,2.72
2022-11-20T02:38:52.025Z,2.69
2022-11-20T02:44:06.958Z,2.68
2022-11-20T02:59:36.422Z,2.64
2022-11-20T03:15:14.237Z,2.69
2022-11-20T03:20:18.348Z,2.65
2022-11-20T03:25:21.869Z,2.67
2022-11-20T03:30:30.862Z,2.69
2022-11-20T03:35:40.978Z,2.71
2022-11-20T03:40:43.886Z,2.71
2022-11-20T03:51:23.468Z,2.76
2022-11-20T03:56:35.095Z,2.68
2022-11-20T04:01:39.422Z,2.62
2022-11-20T04:06:51.646Z,2.60
2022-11-20T04:11:56.572Z,2.56
2022-11-20T04:16:59.649Z,2.53
2022-11-20T04:22:08.614Z,2.51
2022-11-20T04:32:35.199Z,2.55
2022-11-20T04:37:38.463Z,2.49
2022-11-20T04:42:41.203Z,2.47
2022-11-20T04:47:49.250Z,2.46
2022-11-20T04:52:52.022Z,2.48
2022-11-20T04:57:54.740Z,2.47
2022-11-20T05:03:06.522Z,2.47
2022-11-20T05:08:09.247Z,2.47
2022-11-20T05:13:12.208Z,2.45
2022-11-20T05:18:22.794Z,2.43
2022-11-20T05:23:26.103Z,2.41
2022-11-20T05:33:50.766Z,2.46
2022-11-20T05:39:12.915Z,2.45
2022-11-20T05:44:15.694Z,2.38
2022-11-20T05:49:18.547Z,2.37
2022-11-20T05:54:26.883Z,2.36
2022-11-20T06:10:07.875Z,2.41
2022-11-20T06:20:35.627Z,2.33
2022-11-20T06:25:43.345Z,2.25
2022-11-20T06:30:47.216Z,2.24
2022-11-20T06:36:01.640Z,2.22
2022-11-20T06:41:07.446Z,2.25
2022-11-20T06:46:13.957Z,2.25
2022-11-20T06:51:22.345Z,2.27
2022-11-20T06:56:25.083Z,2.32
2022-11-20T07:06:52.992Z,2.47
2022-11-20T07:11:56.808Z,2.43
2022-11-20T07:27:33.268Z,2.53
2022-11-20T07:43:16.832Z,2.49
2022-11-20T07:48:19.600Z,2.48
2022-11-20T07:53:22.785Z,2.48
2022-11-20T07:58:31.974Z,2.47
2022-11-20T08:03:34.746Z,2.47
2022-11-20T08:08:42.380Z,2.48
2022-11-20T08:19:06.264Z,2.65
2022-11-20T08:24:13.201Z,2.62
2022-11-20T08:29:16.665Z,2.65
2022-11-20T08:34:25.612Z,2.67
2022-11-20T08:39:28.400Z,2.71
2022-11-20T08:44:31.188Z,2.74
2022-11-20T08:49:39.268Z,2.75
2022-11-20T08:54:49.458Z,2.79
2022-11-20T09:00:09.315Z,2.87
2022-11-20T09:21:14.237Z,3.20
2022-11-20T09:26:17.240Z,3.20
2022-11-20T09:31:24.511Z,3.26
2022-11-20T09:36:36.523Z,3.32
2022-11-20T09:42:01.747Z,3.37
2022-11-20T09:47:11.889Z,3.38
2022-11-20T09:52:29.223Z,3.39
2022-11-20T09:57:39.270Z,3.44
2022-11-20T10:08:18.046Z,3.67
2022-11-20T10:13:33.306Z,3.71
2022-11-20T10:18:51.859Z,3.79
2022-11-20T10:24:26.805Z,3.85
2022-11-20T10:35:01.932Z,4.08
2022-11-20T10:40:21.033Z,4.12
2022-11-20T10:51:09.181Z,4.87
2022-11-20T10:56:21.602Z,4.96
2022-11-20T11:01:24.558Z,5.05
2022-11-20T11:06:39.815Z,5.09
2022-11-20T11:11:45.221Z,5.10
2022-11-20T11:16:53.781Z,5.12
2022-11-20T11:22:02.539Z,5.15
2022-11-20T11:27:16.788Z,5.19
2022-11-20T11:37:44.177Z,5.37
2022-11-20T11:48:11.256Z,5.29
2022-11-20T11:53:19.811Z,5.22
2022-11-20T11:58:41.947Z,5.24
2022-11-20T12:04:04.367Z,5.31
2022-11-20T12:09:12.799Z,5.33
2022-11-20T12:14:23.053Z,5.33
2022-11-20T12:19:34.902Z,5.33
2022-11-20T12:30:12.675Z,5.42
2022-11-20T12:35:34.820Z,5.40
2022-11-20T12:40:46.266Z,5.45
2022-11-20T12:46:17.059Z,5.47
2022-11-20T12:51:44.425Z,5.44
2022-11-20T12:57:02.355Z,5.37
2022-11-20T13:13:05.455Z,5.09
2022-11-20T13:18:12.854Z,4.97
2022-11-20T13:23:26.477Z,4.94
2022-11-20T13:28:43.401Z,4.86
2022-11-20T13:33:48.301Z,4.77
2022-11-20T13:44:31.796Z,4.66
2022-11-20T13:55:07.386Z,4.41
2022-11-20T14:00:20.680Z,4.34
2022-11-20T14:05:25.440Z,4.33
2022-11-20T14:10:32.443Z,4.46
2022-11-20T14:15:44.833Z,4.46
2022-11-20T14:26:16.728Z,4.39
2022-11-20T14:36:40.555Z,4.23
2022-11-20T14:41:52.714Z,4.10
2022-11-20T14:46:57.486Z,4.00
2022-11-20T14:52:15.937Z,3.89
2022-11-20T14:57:30.654Z,3.79
2022-11-20T15:02:35.637Z,3.69
2022-11-20T15:07:47.043Z,3.56
2022-11-20T15:12:53.041Z,3.46
2022-11-20T15:17:56.076Z,3.35
2022-11-20T15:23:04.129Z,3.24
2022-11-20T15:28:07.131Z,3.16
2022-11-20T15:33:10.614Z,3.05
2022-11-20T15:38:19.599Z,2.94
2022-11-20T15:43:22.496Z,2.85
2022-11-20T15:53:45.782Z,2.74
2022-11-20T16:04:13.610Z,2.59
2022-11-20T16:09:16.327Z,2.44
2022-11-20T16:14:19.098Z,2.38
2022-11-20T16:19:27.324Z,2.32
2022-11-20T16:24:30.116Z,2.25
2022-11-20T16:29:32.919Z,2.18
2022-11-20T16:34:40.969Z,2.12
2022-11-20T16:45:27.024Z,2.07
2022-11-20T16:55:51.543Z,1.90
2022-11-20T17:06:21.739Z,1.75
2022-11-20T17:11:25.517Z,1.62
2022-11-20T17:21:48.207Z,1.59
2022-11-20T17:26:57.946Z,1.48
2022-11-20T17:32:01.618Z,1.43
2022-11-20T17:37:10.626Z,1.41
2022-11-20T17:42:15.922Z,1.37
2022-11-20T17:57:57.326Z,1.27
2022-11-20T18:08:21.165Z,1.47
2022-11-20T18:13:24.873Z,1.33
2022-11-20T18:18:28.490Z,1.25
2022-11-20T18:23:37.953Z,1.20
2022-11-20T18:28:41.069Z,1.13
2022-11-20T18:39:06.505Z,1.11
2022-11-20T18:44:15.651Z,1.01
2022-11-20T18:49:19.177Z,0.96
2022-11-20T18:54:27.922Z,0.92
2022-11-20T18:59:31.051Z,0.92
2022-11-20T19:04:35.737Z,0.90
2022-11-20T19:20:21.113Z,1.02
2022-11-20T19:25:24.743Z,0.97
2022-11-20T19:30:28.280Z,0.97
2022-11-20T19:35:36.402Z,1.01
2022-11-20T19:40:39.313Z,1.03
2022-11-20T19:45:44.068Z,1.05
2022-11-20T19:50:52.290Z,1.08
2022-11-20T19:55:58.451Z,1.11
2022-11-20T20:01:07.123Z,1.15
2022-11-20T20:06:18.436Z,1.18
2022-11-20T20:16:41.231Z,1.28
2022-11-20T20:21:44.841Z,1.22
2022-11-20T20:26:47.572Z,1.25
2022-11-20T20:31:55.765Z,1.26
2022-11-20T20:36:58.787Z,1.27
2022-11-20T20:47:15.860Z,1.30
2022-11-20T21:07:58.757Z,1.34
2022-11-20T21:13:01.624Z,1.36
2022-11-20T21:23:40.795Z,1.46
2022-11-20T22:01:34.215Z,1.37
2022-11-20T22:15:58.850Z,1.38
2022-11-20T22:26:40.164Z,1.30
2022-11-20T22:36:52.667Z,1.29
2022-11-20T22:41:59.033Z,1.29
2022-11-20T22:47:05.223Z,1.28
2022-11-20T23:07:48.867Z,1.25
2022-11-20T23:18:04.873Z,1.22
